Time;durP1;ratioP1;P1;durP2;ratioP2;P2;SDS_P1;SDS_P2;PMS_P1;PMS_P2;Temp;Humidity;BMP_temperature;BMP_pressure;BME280_temperature;BME280_humidity;BME280_pressure;Samples;Min_cycle;Max_cycle;Signal;HPM_P1;HPM_P2
2022/12/04 00:01:01;;;;;;;17.83;8.15;;;;;;;-3.33;100.00;101247.81;5019074;28;20080;-56
2022/12/04 00:03:27;;;;;;;21.55;8.20;;;;;;;-3.43;100.00;101268.97;5019316;28;20063;-57
2022/12/04 00:06:03;;;;;;;15.38;7.78;;;;;;;-3.47;100.00;101272.28;5019329;28;20050;-60
2022/12/04 00:08:29;;;;;;;13.85;6.68;;;;;;;-3.61;100.00;101283.13;5018963;28;20073;-56
2022/12/04 00:10:55;;;;;;;13.38;6.10;;;;;;;-3.60;100.00;101284.78;5019149;28;20060;-56
2022/12/04 00:13:21;;;;;;;11.88;6.85;;;;;;;-3.72;100.00;101283.03;5018890;28;20051;-54
2022/12/04 00:15:48;;;;;;;15.10;7.88;;;;;;;-3.45;100.00;101267.53;5019072;28;20140;-58
2022/12/04 00:18:15;;;;;;;14.65;6.57;;;;;;;-3.63;100.00;101279.03;5018779;28;20058;-56
2022/12/04 00:20:41;;;;;;;15.20;6.38;;;;;;;-3.68;100.00;101279.69;5018625;28;20058;-59
2022/12/04 00:23:07;;;;;;;15.55;8.05;;;;;;;-3.65;100.00;101271.22;5018806;28;20438;-57
2022/12/04 00:25:33;;;;;;;32.13;11.27;;;;;;;-3.34;100.00;101270.31;5019410;28;20050;-57
2022/12/04 00:28:00;;;;;;;15.82;8.18;;;;;;;-3.47;100.00;101267.75;5018670;28;20054;-57
2022/12/04 00:30:26;;;;;;;21.60;10.00;;;;;;;-3.43;100.00;101271.66;5018935;28;20046;-54
2022/12/04 00:32:53;;;;;;;18.23;8.75;;;;;;;-3.56;100.00;101279.81;5018878;28;20050;-53
2022/12/04 00:35:20;;;;;;;17.10;8.90;;;;;;;-3.54;100.00;101269.66;5018562;28;20485;-56
2022/12/04 00:37:46;;;;;;;15.88;7.95;;;;;;;-3.47;100.00;101261.56;5018671;28;20356;-53
2022/12/04 00:40:13;;;;;;;16.38;9.20;;;;;;;-3.08;100.00;101266.53;5018488;28;20054;-57
2022/12/04 00:42:39;;;;;;;13.73;7.13;;;;;;;-3.24;100.00;101279.72;5018885;28;20046;-56
2022/12/04 00:45:06;;;;;;;18.95;8.77;;;;;;;-3.18;100.00;101282.31;5018564;28;20403;-59
2022/12/04 00:47:33;;;;;;;16.77;8.23;;;;;;;-3.51;100.00;101284.50;5018830;28;20057;-55
2022/12/04 00:49:59;;;;;;;11.60;6.75;;;;;;;-3.50;100.00;101292.31;5018387;28;20053;-58
2022/12/04 00:52:27;;;;;;;12.55;6.80;;;;;;;-3.76;100.00;101289.88;5018833;28;20045;-54
2022/12/04 00:54:53;;;;;;;20.05;8.55;;;;;;;-3.45;100.00;101281.75;5018214;28;20418;-57
2022/12/04 00:57:19;;;;;;;20.67;8.38;;;;;;;-3.46;100.00;101280.13;5018425;28;20191;-55
2022/12/04 00:59:46;;;;;;;14.88;7.75;;;;;;;-3.39;100.00;101282.75;5018539;28;20356;-55
2022/12/04 01:02:12;;;;;;;20.92;9.40;;;;;;;-3.43;100.00;101273.47;5018354;28;20050;-56
2022/12/04 01:04:38;;;;;;;15.52;8.52;;;;;;;-3.60;100.00;101284.78;5018528;28;20085;-54
2022/12/04 01:07:05;;;;;;;21.85;9.23;;;;;;;-3.63;100.00;101279.88;5018082;28;20437;-58
2022/12/04 01:09:32;;;;;;;19.73;8.98;;;;;;;-3.53;100.00;101275.84;5018481;28;20374;-54
2022/12/04 01:11:59;;;;;;;18.50;7.95;;;;;;;-3.69;100.00;101278.06;5018135;28;20347;-57
2022/12/04 01:14:25;;;;;;;18.75;8.48;;;;;;;-3.52;100.00;101280.19;5018433;28;20104;-57
2022/12/04 01:16:52;;;;;;;17.05;7.50;;;;;;;-3.73;100.00;101295.63;5017899;28;20087;-53
2022/12/04 01:19:18;;;;;;;18.10;8.20;;;;;;;-3.45;100.00;101265.69;5017793;28;20144;-57
2022/12/04 01:21:44;;;;;;;18.83;9.27;;;;;;;-3.68;100.00;101271.66;5017837;28;20423;-58
2022/12/04 01:24:11;;;;;;;21.95;9.48;;;;;;;-3.57;100.00;101267.44;5018325;28;20050;-56
2022/12/04 01:26:38;;;;;;;17.17;9.25;;;;;;;-3.66;100.00;101264.22;5018111;28;20054;-58
2022/12/04 01:29:04;;;;;;;20.42;9.13;;;;;;;-3.73;100.00;101268.81;5018239;28;20084;-53
2022/12/04 01:31:30;;;;;;;15.50;7.57;;;;;;;-3.65;100.00;101247.09;5016953;28;20056;-58
2022/12/04 01:33:57;;;;;;;27.95;11.30;;;;;;;-3.59;100.00;101254.25;5017685;28;20046;-59
2022/12/04 01:36:25;;;;;;;28.95;11.30;;;;;;;-3.45;100.00;101228.13;5018018;28;20057;-58
2022/12/04 01:38:52;;;;;;;23.85;9.98;;;;;;;-3.72;100.00;101251.69;5017588;28;20057;-54
2022/12/04 01:41:22;;;;;;;19.55;8.27;;;;;;;-3.87;100.00;101238.59;5017857;28;20411;-57
2022/12/04 01:44:07;;;;;;;22.30;10.60;;;;;;;-3.69;100.00;101226.31;5017491;28;20065;-54
2022/12/04 01:46:33;;;;;;;17.95;7.97;;;;;;;-3.84;100.00;101230.13;5018081;28;20060;-53
2022/12/04 01:49:00;;;;;;;15.52;8.15;;;;;;;-3.65;100.00;101228.31;5017456;28;20057;-57
2022/12/04 01:51:33;;;;;;;29.17;10.88;;;;;;;-3.60;100.00;101225.81;5017366;28;20407;-57
2022/12/04 01:54:03;;;;;;;31.47;10.13;;;;;;;-3.61;100.00;101223.34;5017691;28;20050;-58
2022/12/04 01:56:36;;;;;;;24.27;10.40;;;;;;;-3.81;100.00;101223.50;5017445;28;20057;-58
2022/12/04 01:59:03;;;;;;;24.83;9.57;;;;;;;-3.74;100.00;101218.91;5017468;28;20426;-54
2022/12/04 02:01:38;;;;;;;20.13;8.48;;;;;;;-3.73;100.00;101225.09;5017477;28;20053;-56
2022/12/04 02:04:04;;;;;;;22.60;10.90;;;;;;;-3.71;100.00;101226.50;5017613;28;20141;-53
2022/12/04 02:06:30;;;;;;;20.40;9.73;;;;;;;-3.83;100.00;101217.56;5017174;28;20080;-58
2022/12/04 02:08:57;;;;;;;18.33;7.90;;;;;;;-3.94;100.00;101213.72;5017664;28;20050;-57
2022/12/04 02:11:36;;;;;;;22.15;10.43;;;;;;;-3.44;100.00;101188.72;5017011;28;20133;-59
2022/12/04 02:14:12;;;;;;;22.23;10.65;;;;;;;-3.67;100.00;101213.50;5017057;28;20144;-57
2022/12/04 02:16:50;;;;;;;23.83;11.35;;;;;;;-3.64;100.00;101205.81;5017021;28;20116;-57
2022/12/04 02:19:41;;;;;;;23.73;8.10;;;;;;;-3.89;100.00;101210.41;5017038;28;20124;-55
2022/12/04 02:22:23;;;;;;;25.60;10.70;;;;;;;-3.65;100.00;101189.97;5017411;28;20413;-56
2022/12/04 02:24:57;;;;;;;29.55;11.27;;;;;;;-3.66;100.00;101212.47;5016957;28;20139;-58
2022/12/04 02:27:33;;;;;;;22.15;10.35;;;;;;;-3.49;100.00;101204.69;5016860;28;20481;-56
2022/12/04 02:30:03;;;;;;;30.00;11.18;;;;;;;-3.71;100.00;101215.78;5017007;28;20092;-56
2022/12/04 02:32:37;;;;;;;31.55;11.98;;;;;;;-3.61;100.00;101213.44;5016701;28;20056;-56
2022/12/04 02:35:08;;;;;;;28.80;11.30;;;;;;;-3.60;100.00;101201.69;5017197;28;20050;-58
2022/12/04 02:37:37;;;;;;;24.33;10.55;;;;;;;-3.56;100.00;101215.47;5016794;28;20499;-59
2022/12/04 02:40:08;;;;;;;28.90;12.15;;;;;;;-3.74;100.00;101221.59;5017065;28;20049;-55
2022/12/04 02:42:40;;;;;;;30.33;11.63;;;;;;;-3.73;100.00;101228.63;5016641;28;20060;-58
2022/12/04 02:45:11;;;;;;;25.88;10.77;;;;;;;-3.79;100.00;101232.16;5017140;28;20423;-56
2022/12/04 02:47:41;;;;;;;33.17;13.68;;;;;;;-3.62;100.00;101227.06;5016931;28;20385;-58
2022/12/04 02:50:11;;;;;;;27.17;12.23;;;;;;;-3.94;100.00;101229.78;5016785;28;20388;-56
2022/12/04 02:52:43;;;;;;;29.77;12.75;;;;;;;-3.60;100.00;101222.28;5016717;28;20061;-56
2022/12/04 02:55:15;;;;;;;23.70;9.88;;;;;;;-3.97;100.00;101230.22;5016602;28;20053;-57
2022/12/04 02:57:47;;;;;;;23.35;10.68;;;;;;;-3.73;100.00;101217.03;5016652;28;20403;-55
2022/12/04 03:00:16;;;;;;;26.42;13.13;;;;;;;-3.81;100.00;101228.88;5016432;28;20437;-57
2022/12/04 03:02:47;;;;;;;32.22;12.75;;;;;;;-3.79;100.00;101224.13;5016822;28;20053;-54
2022/12/04 03:05:19;;;;;;;28.48;12.98;;;;;;;-3.70;100.00;101225.47;5016409;28;20212;-57
2022/12/04 03:07:51;;;;;;;32.13;12.75;;;;;;;-3.93;100.00;101222.56;5016316;28;20144;-56
2022/12/04 03:10:23;;;;;;;32.78;12.73;;;;;;;-3.94;100.00;101231.66;5016388;28;20145;-57
2022/12/04 03:12:54;;;;;;;33.40;12.77;;;;;;;-3.84;100.00;101214.03;5016440;28;20140;-56
2022/12/04 03:15:27;;;;;;;32.80;11.60;;;;;;;-3.85;100.00;101215.09;5016498;28;20050;-57
2022/12/04 03:17:57;;;;;;;31.50;12.70;;;;;;;-3.86;100.00;101210.78;5016095;28;20064;-55
2022/12/04 03:20:25;;;;;;;32.00;12.82;;;;;;;-3.91;100.00;101215.97;5016564;28;20061;-56
2022/12/04 03:22:56;;;;;;;30.35;13.57;;;;;;;-3.72;100.00;101207.97;5016218;28;20324;-56
2022/12/04 03:25:28;;;;;;;29.20;14.85;;;;;;;-3.72;100.00;101203.44;5016551;28;20137;-57
2022/12/04 03:27:59;;;;;;;36.95;13.02;;;;;;;-3.65;100.00;101214.09;5016015;28;20203;-59
2022/12/04 03:30:34;;;;;;;24.88;12.07;;;;;;;-3.81;100.00;101227.00;5016335;28;20080;-55
2022/12/04 03:33:08;;;;;;;34.13;13.55;;;;;;;-3.74;100.00;101231.50;5016114;28;20049;-57
2022/12/04 03:35:43;;;;;;;32.10;12.13;;;;;;;-3.72;100.00;101237.47;5016328;28;20154;-58
2022/12/04 03:38:16;;;;;;;31.67;12.48;;;;;;;-3.63;100.00;101239.66;5016170;28;20058;-57
2022/12/04 03:40:49;;;;;;;19.67;9.57;;;;;;;-3.95;100.00;101238.88;5016021;28;20108;-58
2022/12/04 03:43:22;;;;;;;25.50;11.13;;;;;;;-3.72;100.00;101235.59;5016315;28;20403;-57
2022/12/04 03:45:54;;;;;;;27.35;10.88;;;;;;;-3.73;100.00;101241.16;5015821;28;20145;-53
2022/12/04 03:48:25;;;;;;;23.45;10.48;;;;;;;-3.75;100.00;101246.75;5016374;28;20068;-57
2022/12/04 03:50:58;;;;;;;40.75;14.07;;;;;;;-3.65;100.00;101265.03;5016116;28;20110;-54
2022/12/04 03:53:31;;;;;;;27.92;12.77;;;;;;;-3.81;100.00;101258.34;5015770;28;20140;-55
2022/12/04 03:56:05;;;;;;;34.22;13.10;;;;;;;-3.69;100.00;101255.78;5019555;28;20428;-57
2022/12/04 03:58:35;;;;;;;40.38;10.70;;;;;;;-3.69;100.00;101256.63;5019161;28;20053;-57
2022/12/04 04:01:06;;;;;;;34.67;13.57;;;;;;;-3.58;100.00;101265.78;5019450;28;20111;-58
2022/12/04 04:03:37;;;;;;;33.67;12.95;;;;;;;-3.68;100.00;101273.50;5019124;28;20053;-59
2022/12/04 04:06:09;;;;;;;20.75;9.48;;;;;;;-3.73;100.00;101273.34;5019526;28;20045;-56
2022/12/04 04:08:40;;;;;;;37.50;14.00;;;;;;;-3.65;100.00;101270.41;5018976;28;20064;-55
2022/12/04 04:11:13;;;;;;;34.97;13.70;;;;;;;-3.79;100.00;101285.78;5019128;28;20140;-54
2022/12/04 04:24:57;;;;;;;24.83;11.57;;;;;;;-3.72;100.00;101328.59;5019170;28;20076;-58
2022/12/04 04:27:23;;;;;;;26.70;11.52;;;;;;;-3.63;100.00;101335.31;5019091;28;20315;-56
2022/12/04 04:29:51;;;;;;;28.40;12.00;;;;;;;-3.89;100.00;101345.19;5019090;28;20111;-55
2022/12/04 04:32:25;;;;;;;24.77;10.98;;;;;;;-3.64;100.00;101331.81;5018884;28;20108;-56
2022/12/04 04:35:00;;;;;;;27.10;12.05;;;;;;;-3.50;100.00;101331.72;5018674;28;20367;-59
2022/12/04 04:37:35;;;;;;;27.42;12.57;;;;;;;-3.63;100.00;101338.00;5019020;28;20137;-56
2022/12/04 04:40:12;;;;;;;27.05;12.35;;;;;;;-3.62;100.00;101347.72;5018661;28;20085;-54
2022/12/04 04:42:45;;;;;;;34.10;13.57;;;;;;;-3.34;100.00;101337.34;5018482;28;20061;-56
2022/12/04 04:45:15;;;;;;;34.50;13.73;;;;;;;-3.54;100.00;101358.16;5018744;28;20046;-54
2022/12/04 04:47:49;;;;;;;30.10;12.73;;;;;;;-3.86;100.00;101376.94;5018484;28;20064;-56
2022/12/04 04:50:18;;;;;;;30.45;14.75;;;;;;;-3.87;100.00;101353.00;5018784;28;20375;-56
2022/12/04 04:52:48;;;;;;;30.30;13.27;;;;;;;-3.72;100.00;101342.00;5018321;28;20121;-55
2022/12/04 04:55:15;;;;;;;28.30;12.50;;;;;;;-3.73;100.00;101337.66;5018355;28;20050;-58
2022/12/04 04:57:42;;;;;;;32.70;13.60;;;;;;;-3.61;100.00;101336.75;5018088;28;20419;-58
2022/12/04 05:00:12;;;;;;;36.45;13.07;;;;;;;-3.64;100.00;101337.19;5018720;28;20046;-53
2022/12/04 05:02:38;;;;;;;28.02;13.88;;;;;;;-3.46;100.00;101325.72;5018107;28;20430;-57
2022/12/04 05:05:06;;;;;;;29.48;11.45;;;;;;;-3.68;100.00;101338.66;5017391;28;20450;-57
2022/12/04 05:07:33;;;;;;;33.63;13.55;;;;;;;-3.55;100.00;101345.78;5017763;28;20411;-57
2022/12/04 05:09:59;;;;;;;35.40;13.10;;;;;;;-3.28;100.00;101341.03;5018020;28;20058;-57
2022/12/04 05:12:26;;;;;;;31.65;13.43;;;;;;;-3.77;100.00;101358.72;5017899;28;20064;-56
2022/12/04 05:14:52;;;;;;;34.70;12.48;;;;;;;-3.71;100.00;101368.59;5017978;28;20141;-56
2022/12/04 05:17:18;;;;;;;35.58;12.52;;;;;;;-3.84;100.00;101364.13;5018172;28;20111;-57
2022/12/04 05:19:54;;;;;;;29.70;12.80;;;;;;;-3.88;100.00;101356.75;5017862;28;20069;-56
2022/12/04 05:22:24;;;;;;;29.73;13.05;;;;;;;-3.92;100.00;101355.53;5018194;28;20050;-53
2022/12/04 05:24:50;;;;;;;32.80;12.57;;;;;;;-3.60;100.00;101342.94;5017552;28;20050;-53
2022/12/04 05:27:17;;;;;;;30.65;14.10;;;;;;;-3.58;100.00;101346.22;5018063;28;20108;-57
2022/12/04 05:29:43;;;;;;;25.50;10.32;;;;;;;-3.68;100.00;101359.28;5017596;28;20058;-56
2022/12/04 05:32:10;;;;;;;26.20;12.27;;;;;;;-3.71;100.00;101362.41;5017690;28;20068;-57
2022/12/04 05:34:36;;;;;;;27.90;11.23;;;;;;;-3.52;100.00;101355.28;5017905;28;20080;-57
2022/12/04 05:37:03;;;;;;;28.55;12.20;;;;;;;-3.73;100.00;101362.63;5017494;28;20096;-59
2022/12/04 05:39:30;;;;;;;40.83;12.43;;;;;;;-3.70;100.00;101362.16;5017697;28;20057;-55
2022/12/04 05:41:56;;;;;;;31.48;12.15;;;;;;;-3.70;100.00;101362.16;5017499;28;20045;-59
2022/12/04 05:44:23;;;;;;;18.05;9.02;;;;;;;-3.93;100.00;101378.00;5017859;28;20050;-57
2022/12/04 05:46:49;;;;;;;25.40;11.07;;;;;;;-3.87;100.00;101364.56;5017693;28;20395;-54
2022/12/04 05:49:15;;;;;;;29.45;13.15;;;;;;;-3.72;100.00;101356.22;5017643;28;20410;-58
2022/12/04 05:51:41;;;;;;;25.20;11.50;;;;;;;-3.85;100.00;101354.44;5017290;28;20050;-57
2022/12/04 05:54:08;;;;;;;27.80;9.23;;;;;;;-3.91;100.00;101349.94;5017806;28;20140;-57
2022/12/04 05:56:35;;;;;;;24.02;11.23;;;;;;;-3.87;100.00;101347.66;5017298;28;20049;-58
2022/12/04 05:59:01;;;;;;;27.95;11.82;;;;;;;-4.03;100.00;101335.63;5017222;28;20054;-59
2022/12/04 06:01:27;;;;;;;28.23;11.75;;;;;;;-3.55;100.00;101327.84;5017419;28;20075;-57
2022/12/04 06:03:53;;;;;;;32.00;11.57;;;;;;;-3.75;100.00;101342.44;5017114;28;20414;-56
2022/12/04 06:06:22;;;;;;;25.77;11.73;;;;;;;-3.92;100.00;101360.91;5017511;28;20361;-56
2022/12/04 06:08:48;;;;;;;24.23;10.43;;;;;;;-3.84;100.00;101350.72;5017267;28;20054;-56
2022/12/04 06:11:17;;;;;;;25.20;10.82;;;;;;;-3.75;100.00;101345.94;5017164;28;20092;-56
2022/12/04 06:13:46;;;;;;;31.35;11.07;;;;;;;-3.82;100.00;101351.34;5017020;28;20050;-56
2022/12/04 06:16:13;;;;;;;35.50;13.88;;;;;;;-3.61;100.00;101352.84;5017256;28;20050;-54
2022/12/04 06:18:40;;;;;;;28.50;11.32;;;;;;;-3.82;100.00;101372.78;5016642;28;20347;-57
2022/12/04 06:21:07;;;;;;;20.02;8.13;;;;;;;-4.02;100.00;101380.13;5017273;28;20053;-57
2022/12/04 06:23:33;;;;;;;28.33;12.50;;;;;;;-3.62;100.00;101347.72;5016546;28;20049;-56
2022/12/04 06:26:02;;;;;;;35.55;13.98;;;;;;;-3.96;100.00;101355.16;5016794;28;20399;-58
2022/12/04 06:28:28;;;;;;;32.28;11.80;;;;;;;-3.71;100.00;101351.69;5017101;28;20152;-56
2022/12/04 06:30:59;;;;;;;37.65;13.60;;;;;;;-3.61;100.00;101346.66;5016748;28;20116;-54
2022/12/04 06:33:26;;;;;;;28.27;11.65;;;;;;;-3.68;100.00;101367.34;5016742;28;20060;-54
2022/12/04 06:35:58;;;;;;;34.38;13.55;;;;;;;-3.85;100.00;101367.84;5016718;28;20047;-57
2022/12/04 06:38:24;;;;;;;29.70;12.90;;;;;;;-4.09;100.00;101373.97;5017102;28;20049;-57
2022/12/04 06:40:51;;;;;;;33.60;14.20;;;;;;;-3.61;100.00;101357.38;5016540;28;20316;-56
2022/12/04 06:43:17;;;;;;;35.33;14.20;;;;;;;-3.51;100.00;101341.63;5016966;28;20075;-55
2022/12/04 06:45:43;;;;;;;30.48;12.25;;;;;;;-3.69;100.00;101371.88;5016509;28;20056;-59
2022/12/04 06:48:10;;;;;;;25.95;11.35;;;;;;;-3.67;100.00;101391.22;5017033;28;20064;-56
2022/12/04 06:50:37;;;;;;;33.63;13.57;;;;;;;-3.79;100.00;101392.97;5016690;28;20061;-57
2022/12/04 06:53:03;;;;;;;31.25;14.05;;;;;;;-3.88;100.00;101389.72;5016576;28;20054;-57
2022/12/04 06:55:29;;;;;;;34.58;12.52;;;;;;;-3.88;100.00;101405.78;5016212;28;20107;-58
2022/12/04 06:57:55;;;;;;;27.35;11.20;;;;;;;-3.97;100.00;101382.97;5016356;28;20346;-57
2022/12/04 07:00:22;;;;;;;31.23;13.20;;;;;;;-3.86;100.00;101376.94;5016388;28;20136;-55
2022/12/04 07:02:48;;;;;;;32.55;12.88;;;;;;;-3.64;100.00;101377.41;5016641;28;20235;-59
2022/12/04 07:05:15;;;;;;;26.27;11.25;;;;;;;-3.75;100.00;101382.66;5016483;28;20057;-55
2022/12/04 07:07:42;;;;;;;36.72;14.32;;;;;;;-3.59;100.00;101377.59;5016262;28;20145;-56
2022/12/04 07:10:08;;;;;;;25.38;11.05;;;;;;;-3.74;100.00;101387.78;5016225;28;20117;-57
2022/12/04 07:12:35;;;;;;;35.05;13.30;;;;;;;-3.70;100.00;101377.44;5016180;28;20386;-58
2022/12/04 07:15:01;;;;;;;30.85;11.68;;;;;;;-3.66;100.00;101398.25;5016652;28;20086;-57
2022/12/04 07:17:27;;;;;;;27.75;10.50;;;;;;;-3.71;100.00;101394.56;5015875;28;20085;-57
2022/12/04 07:19:54;;;;;;;28.02;12.18;;;;;;;-3.80;100.00;101391.31;5016007;28;20045;-59
2022/12/04 07:22:21;;;;;;;34.55;12.70;;;;;;;-3.86;100.00;101397.56;5016028;28;20069;-56
2022/12/04 07:24:47;;;;;;;34.97;14.48;;;;;;;-3.93;100.00;101397.59;5016199;28;20117;-57
2022/12/04 07:27:13;;;;;;;24.98;11.30;;;;;;;-3.88;100.00;101392.41;5016171;28;20060;-56
2022/12/04 07:29:41;;;;;;;35.67;12.63;;;;;;;-4.06;100.00;101370.88;5017888;28;20140;-58
2022/12/04 07:32:07;;;;;;;33.05;14.18;;;;;;;-3.75;100.00;101363.88;5019782;28;20319;-53
2022/12/04 07:34:34;;;;;;;23.17;9.65;;;;;;;-4.06;100.00;101363.66;5019227;28;20073;-58
2022/12/04 07:37:00;;;;;;;35.35;14.38;;;;;;;-4.02;100.00;101354.13;5019705;28;20046;-56
2022/12/04 07:39:28;;;;;;;27.77;11.23;;;;;;;-3.89;100.00;101344.38;5019140;28;20054;-55
2022/12/04 07:41:54;;;;;;;37.17;13.95;;;;;;;-4.14;100.00;101355.03;5019770;28;20304;-57
2022/12/04 07:44:20;;;;;;;27.65;11.38;;;;;;;-4.22;100.00;101332.00;5019222;28;20046;-57
2022/12/04 07:46:47;;;;;;;28.27;13.23;;;;;;;-4.06;100.00;101328.00;5019631;28;20072;-57
2022/12/04 07:49:13;;;;;;;28.30;12.45;;;;;;;-4.16;100.00;101320.44;5019713;28;20137;-55
2022/12/04 07:51:39;;;;;;;38.33;14.52;;;;;;;-3.93;100.00;101305.63;5019056;28;20053;-58
2022/12/04 07:54:07;;;;;;;27.10;10.20;;;;;;;-4.12;100.00;101310.91;5019265;28;20200;-55
2022/12/04 07:56:34;;;;;;;32.15;13.38;;;;;;;-3.99;100.00;101304.66;5019359;28;20068;-58
2022/12/04 07:59:01;;;;;;;23.80;10.25;;;;;;;-4.13;100.00;101305.75;5019392;28;20053;-53
2022/12/04 08:01:27;;;;;;;29.05;12.88;;;;;;;-4.13;100.00;101311.13;5018926;28;20085;-57
2022/12/04 08:03:56;;;;;;;27.88;10.25;;;;;;;-4.19;100.00;101294.06;5019444;28;20049;-56
2022/12/04 08:06:24;;;;;;;35.45;13.60;;;;;;;-3.90;100.00;101286.44;5018908;28;20360;-57
2022/12/04 08:08:52;;;;;;;34.05;12.40;;;;;;;-3.79;100.00;101297.31;5018949;28;20140;-57
2022/12/04 08:11:22;;;;;;;20.95;8.95;;;;;;;-4.00;100.00;101307.53;5019150;28;20057;-57
2022/12/04 08:13:53;;;;;;;32.83;12.20;;;;;;;-3.99;100.00;101320.75;5019387;28;20053;-56
2022/12/04 08:16:20;;;;;;;18.05;9.07;;;;;;;-3.99;100.00;101322.59;5018862;28;20059;-58
2022/12/04 08:18:47;;;;;;;30.48;11.35;;;;;;;-3.92;100.00;101309.97;5018725;28;20060;-57
2022/12/04 08:21:15;;;;;;;30.92;12.15;;;;;;;-4.15;100.00;101327.41;5019162;28;20140;-55
2022/12/04 08:23:43;;;;;;;28.60;10.82;;;;;;;-3.90;100.00;101337.38;5018911;28;20068;-54
2022/12/04 08:26:10;;;;;;;22.48;10.45;;;;;;;-3.91;100.00;101341.09;5019039;28;20126;-59
2022/12/04 08:28:37;;;;;;;25.65;10.73;;;;;;;-4.04;100.00;101332.09;5018672;28;20085;-53
2022/12/04 08:31:05;;;;;;;28.10;13.63;;;;;;;-3.63;100.00;101320.09;5018907;28;20053;-58
2022/12/04 08:33:32;;;;;;;26.00;12.77;;;;;;;-3.98;100.00;101346.50;5018636;28;20390;-57
2022/12/04 08:35:59;;;;;;;20.40;9.15;;;;;;;-3.99;100.00;101358.25;5019070;28;20085;-55
2022/12/04 08:38:25;;;;;;;25.40;10.20;;;;;;;-4.10;100.00;101358.91;5018373;28;20061;-58
2022/12/04 08:40:52;;;;;;;34.35;10.98;;;;;;;-3.97;100.00;101358.84;5018201;28;20049;-55
2022/12/04 08:43:18;;;;;;;26.40;10.35;;;;;;;-3.98;100.00;101361.75;5018597;28;20050;-56
2022/12/04 08:45:56;;;;;;;33.22;11.00;;;;;;;-3.81;100.00;101362.88;5018281;28;20054;-55
2022/12/04 08:48:23;;;;;;;22.15;9.57;;;;;;;-3.88;100.00;101376.31;5001619;28;20152;-56
2022/12/04 08:50:50;;;;;;;21.88;9.57;;;;;;;-4.03;100.00;101386.50;5018207;28;20120;-55
2022/12/04 08:53:18;;;;;;;32.55;13.25;;;;;;;-3.80;100.00;101384.13;5018521;28;20148;-59
2022/12/04 08:55:44;;;;;;;28.25;12.05;;;;;;;-4.04;100.00;101411.66;5018204;28;20058;-56
2022/12/04 08:58:14;;;;;;;26.58;12.55;;;;;;;-3.75;100.00;101398.72;5018509;28;20113;-54
2022/12/04 09:00:43;;;;;;;26.98;11.27;;;;;;;-4.08;100.00;101411.25;5018063;28;20388;-59
2022/12/04 09:03:14;;;;;;;24.08;11.23;;;;;;;-3.75;100.00;101404.09;5018347;28;20116;-57
2022/12/04 09:05:44;;;;;;;26.00;11.38;;;;;;;-3.77;100.00;101417.69;5001322;28;20096;-58
2022/12/04 09:08:13;;;;;;;17.17;8.63;;;;;;;-3.95;100.00;101428.31;5017877;28;20139;-55
2022/12/04 09:10:41;;;;;;;34.10;11.30;;;;;;;-3.95;100.00;101420.28;5017924;28;20114;-57
2022/12/04 09:13:09;;;;;;;20.20;9.65;;;;;;;-4.18;100.00;101424.28;5001151;28;20077;-53
2022/12/04 09:15:39;;;;;;;24.95;12.63;;;;;;;-3.87;100.00;101422.69;5018261;28;20057;-58
2022/12/04 09:18:06;;;;;;;19.30;8.95;;;;;;;-4.02;100.00;101417.63;5017798;28;20103;-57
2022/12/04 09:20:33;;;;;;;24.42;9.20;;;;;;;-3.93;100.00;101421.72;5018131;28;20060;-58
2022/12/04 09:23:01;;;;;;;27.98;9.13;;;;;;;-3.93;100.00;101424.38;5017802;28;20064;-56
2022/12/04 09:25:28;;;;;;;18.25;7.65;;;;;;;-4.11;100.00;101438.47;5018201;28;20050;-55
2022/12/04 09:27:57;;;;;;;23.42;10.75;;;;;;;-3.89;100.00;101436.31;5017462;28;20095;-59
2022/12/04 09:30:24;;;;;;;22.60;10.35;;;;;;;-3.85;100.00;101439.41;5017415;28;20053;-57
2022/12/04 09:32:51;;;;;;;24.83;9.88;;;;;;;-3.79;100.00;101451.94;5017488;28;20132;-58
2022/12/04 09:35:18;;;;;;;23.27;10.85;;;;;;;-3.85;100.00;101442.06;5017478;28;20089;-54
2022/12/04 09:37:45;;;;;;;21.17;9.85;;;;;;;-3.99;100.00;101453.91;5017709;28;20408;-59
2022/12/04 09:40:25;;;;;;;19.55;10.25;;;;;;;-3.91;100.00;101453.63;5017329;28;20050;-57
2022/12/04 09:42:57;;;;;;;25.40;9.15;;;;;;;-3.94;100.00;101452.19;5017920;28;20148;-58
2022/12/04 09:45:28;;;;;;;25.15;10.13;;;;;;;-3.95;100.00;101461.28;5017352;28;20069;-57
2022/12/04 09:48:00;;;;;;;21.50;9.48;;;;;;;-4.13;100.00;101463.81;5017712;28;20050;-60
2022/12/04 09:50:36;;;;;;;22.45;10.55;;;;;;;-3.88;100.00;101459.41;5017368;28;20112;-56
2022/12/04 09:53:09;;;;;;;21.42;10.77;;;;;;;-4.03;100.00;101458.84;5016970;28;20160;-58
2022/12/04 09:55:42;;;;;;;18.70;9.23;;;;;;;-4.02;100.00;101455.94;5017426;28;20166;-57
2022/12/04 09:58:14;;;;;;;18.88;9.25;;;;;;;-4.23;100.00;101471.47;5017138;28;20089;-57
2022/12/04 10:00:43;;;;;;;20.77;9.45;;;;;;;-4.08;100.00;101464.81;5017450;28;20058;-59
2022/12/04 10:03:15;;;;;;;21.17;9.93;;;;;;;-4.16;100.00;101472.28;5017136;28;20069;-58
2022/12/04 10:05:53;;;;;;;17.35;6.72;;;;;;;-4.04;100.00;101463.38;5017066;28;20057;-57
2022/12/04 10:08:22;;;;;;;24.33;9.40;;;;;;;-4.11;100.00;101464.44;5017092;28;20058;-58
2022/12/04 10:10:59;;;;;;;14.25;7.28;;;;;;;-4.18;100.00;101477.03;5017549;28;20362;-58
2022/12/04 10:13:44;;;;;;;25.90;9.10;;;;;;;-4.17;100.00;101470.63;5017289;28;20049;-60
2022/12/04 10:16:17;;;;;;;15.27;8.00;;;;;;;-4.14;100.00;101470.22;5016938;28;20056;-58
2022/12/04 10:18:50;;;;;;;19.43;8.83;;;;;;;-4.22;100.00;101476.63;5017403;28;20156;-57
2022/12/04 10:21:36;;;;;;;21.52;9.60;;;;;;;-4.15;100.00;101468.56;5016927;28;20057;-58
2022/12/04 10:24:20;;;;;;;38.72;11.30;;;;;;;-3.85;100.00;101474.22;5017261;28;20071;-57
2022/12/04 10:26:48;;;;;;;21.15;9.50;;;;;;;-4.17;100.00;101484.84;5017257;28;20080;-58
2022/12/04 10:29:20;;;;;;;18.42;6.38;;;;;;;-4.33;100.00;101475.44;5017093;28;20403;-59
2022/12/04 10:31:48;;;;;;;18.83;7.57;;;;;;;-4.34;100.00;101484.47;5016947;28;20050;-55
2022/12/04 10:34:19;;;;;;;16.45;8.70;;;;;;;-4.26;100.00;101465.50;5017009;28;20179;-57
2022/12/04 10:36:53;;;;;;;16.75;9.18;;;;;;;-3.62;100.00;101471.03;5017183;28;20050;-59
2022/12/04 10:39:25;;;;;;;12.80;6.30;;;;;;;-4.21;100.00;101483.63;5016579;28;20080;-56
2022/12/04 10:41:59;;;;;;;17.08;8.05;;;;;;;-4.45;100.00;101476.28;5017141;28;20347;-57
2022/12/04 10:44:26;;;;;;;17.95;9.25;;;;;;;-4.05;100.00;101468.94;5016544;28;20148;-57
2022/12/04 10:46:58;;;;;;;17.52;8.82;;;;;;;-4.22;100.00;101476.63;5016530;28;20072;-56
2022/12/04 10:49:27;;;;;;;18.80;8.93;;;;;;;-4.19;100.00;101476.22;5016800;28;20053;-59
2022/12/04 10:51:55;;;;;;;18.20;7.75;;;;;;;-4.26;100.00;101480.78;5016506;28;20081;-53
2022/12/04 10:54:30;;;;;;;19.73;9.80;;;;;;;-4.14;100.00;101467.53;5016783;28;20049;-59
2022/12/04 10:57:00;;;;;;;24.75;9.20;;;;;;;-3.96;100.00;101477.59;5016426;28;20053;-55
2022/12/04 10:59:28;;;;;;;20.65;9.30;;;;;;;-3.95;100.00;101468.50;5016883;28;20376;-55
2022/12/04 11:02:01;;;;;;;19.08;10.15;;;;;;;-3.98;100.00;101477.78;5016029;28;20057;-58
2022/12/04 11:04:31;;;;;;;28.02;12.25;;;;;;;-3.75;100.00;101484.50;5015508;28;20054;-55
2022/12/04 11:07:03;;;;;;;23.63;9.35;;;;;;;-4.02;100.00;101484.59;5016324;28;20057;-58
2022/12/04 11:09:32;;;;;;;18.27;10.02;;;;;;;-3.88;100.00;101480.00;5016399;28;20111;-58
2022/12/04 11:12:08;;;;;;;26.80;11.15;;;;;;;-4.17;100.00;101476.81;5016266;28;20054;-55
2022/12/04 11:14:35;;;;;;;21.15;10.20;;;;;;;-4.06;100.00;101484.22;5016152;28;20049;-60
2022/12/04 11:17:03;;;;;;;18.45;7.80;;;;;;;-4.27;100.00;101477.25;5016473;28;20403;-55
2022/12/04 11:19:33;;;;;;;26.13;10.55;;;;;;;-4.10;100.00;101461.56;5016006;28;20053;-57
2022/12/04 11:22:05;;;;;;;22.08;10.73;;;;;;;-3.85;100.00;101468.88;5016240;28;20049;-59
2022/12/04 11:24:35;;;;;;;25.70;10.18;;;;;;;-4.14;100.00;101475.56;5015591;28;20060;-59